createdAt,value
2022-11-24T00:01:10.877Z,14.63
2022-11-24T00:03:37.683Z,17.87
2022-11-24T00:06:07.658Z,14.57
2022-11-24T00:08:38.812Z,11.43
2022-11-24T00:11:11.644Z,11.77
2022-11-24T00:13:41.603Z,13.33
2022-11-24T00:16:10.757Z,10.43
2022-11-24T00:18:38.713Z,14.47
2022-11-24T00:21:05.432Z,13.60
2022-11-24T00:23:32.529Z,13.60
2022-11-24T00:26:13.368Z,13.03
2022-11-24T00:28:41.045Z,13.43
2022-11-24T00:31:35.351Z,15.63
2022-11-24T00:34:04.842Z,10.47
2022-11-24T00:36:33.766Z,15.37
2022-11-24T00:39:11.008Z,10.97
2022-11-24T00:41:37.632Z,12.77
2022-11-24T00:44:04.533Z,12.17
2022-11-24T00:46:31.334Z,11.10
2022-11-24T00:49:00.374Z,11.70
2022-11-24T00:51:30.237Z,14.27
2022-11-24T00:53:57.919Z,12.93
2022-11-24T00:56:25.950Z,11.50
2022-11-24T00:58:53.088Z,15.47
2022-11-24T01:01:22.482Z,10.33
2022-11-24T01:03:49.416Z,11.67
2022-11-24T01:06:19.620Z,11.67
2022-11-24T01:08:47.022Z,12.80
2022-11-24T01:11:25.931Z,12.33
2022-11-24T01:13:57.902Z,12.30
2022-11-24T01:16:25.903Z,11.10
2022-11-24T01:18:52.913Z,13.10
2022-11-24T01:21:20.305Z,15.37
2022-11-24T01:23:46.966Z,14.03
2022-11-24T01:26:16.503Z,13.33
2022-11-24T01:28:47.097Z,12.90
2022-11-24T01:31:14.457Z,10.13
2022-11-24T01:33:41.164Z,10.13
2022-11-24T01:36:07.885Z,14.10
2022-11-24T01:38:34.679Z,8.77
2022-11-24T01:41:07.236Z,10.87
2022-11-24T01:43:34.738Z,7.23
2022-11-24T01:46:24.157Z,12.00
2022-11-24T01:49:13.843Z,13.60
2022-11-24T01:51:45.784Z,7.33
2022-11-24T01:54:18.380Z,12.30
2022-11-24T01:56:48.882Z,10.30
2022-11-24T01:59:18.847Z,14.80
2022-11-24T02:01:47.598Z,16.03
2022-11-24T02:04:18.686Z,16.73
2022-11-24T02:06:46.632Z,10.63
2022-11-24T02:09:33.262Z,13.30
2022-11-24T02:12:02.132Z,13.20
2022-11-24T02:14:28.873Z,15.20
2022-11-24T02:16:55.730Z,10.67
2022-11-24T02:19:45.123Z,13.10
2022-11-24T02:22:37.502Z,9.47
2022-11-24T02:25:29.113Z,10.67
2022-11-24T02:27:56.697Z,12.93
2022-11-24T02:30:23.696Z,17.13
2022-11-24T02:32:51.590Z,11.40
2022-11-24T02:35:18.834Z,15.43
2022-11-24T02:37:45.445Z,11.83
2022-11-24T02:40:15.580Z,12.17
2022-11-24T02:42:46.197Z,14.57
2022-11-24T02:45:15.371Z,15.10
2022-11-24T02:47:42.051Z,14.93
2022-11-24T02:50:08.840Z,10.40
2022-11-24T02:52:35.431Z,13.13
2022-11-24T02:55:02.065Z,11.80
2022-11-24T02:57:28.742Z,13.83
2022-11-24T02:59:55.320Z,11.80
2022-11-24T03:02:22.499Z,14.47
2022-11-24T03:04:49.327Z,9.57
2022-11-24T03:07:16.065Z,18.67
2022-11-24T03:09:42.765Z,15.07
2022-11-24T03:12:09.393Z,13.90
2022-11-24T03:14:36.229Z,14.47
2022-11-24T03:17:04.164Z,15.57
2022-11-24T03:19:30.742Z,14.33
2022-11-24T03:21:57.328Z,15.50
2022-11-24T03:24:23.895Z,14.63
2022-11-24T03:26:50.542Z,16.90
2022-11-24T03:29:17.345Z,17.43
2022-11-24T03:31:44.023Z,17.40
2022-11-24T03:34:10.845Z,13.30
2022-11-24T03:36:37.430Z,13.43
2022-11-24T03:39:04.105Z,18.63
2022-11-24T03:41:30.725Z,14.20
2022-11-24T03:43:57.315Z,15.77
2022-11-24T03:46:23.932Z,11.00
2022-11-24T03:48:50.560Z,17.67
2022-11-24T03:51:17.187Z,13.50
2022-11-24T03:53:43.800Z,21.77
2022-11-24T03:56:10.404Z,17.50
2022-11-24T03:58:37.084Z,14.73
2022-11-24T04:01:03.842Z,15.37
2022-11-24T04:03:30.544Z,16.87
2022-11-24T04:05:57.125Z,14.17
2022-11-24T04:08:23.707Z,18.03
2022-11-24T04:10:53.284Z,12.37
2022-11-24T04:13:22.580Z,16.83
2022-11-24T04:15:49.583Z,16.47
2022-11-24T04:18:16.251Z,17.13
2022-11-24T04:20:43.396Z,10.57
2022-11-24T04:23:10.656Z,16.90
2022-11-24T04:25:37.935Z,16.53
2022-11-24T04:28:04.988Z,14.23
2022-11-24T04:30:31.790Z,13.80
2022-11-24T04:32:58.960Z,15.70
2022-11-24T04:35:25.660Z,15.07
2022-11-24T04:37:52.331Z,14.83
2022-11-24T04:40:19.740Z,14.07
2022-11-24T04:42:54.725Z,17.10
2022-11-24T04:45:22.172Z,12.60
2022-11-24T04:47:48.753Z,17.00
2022-11-24T04:50:15.779Z,16.27
2022-11-24T04:52:43.298Z,14.67
2022-11-24T04:55:10.447Z,16.03
2022-11-24T04:57:37.087Z,16.57
2022-11-24T05:00:04.362Z,14.37
2022-11-24T05:02:31.029Z,15.40
2022-11-24T05:04:57.614Z,14.47
2022-11-24T05:07:24.261Z,17.63
2022-11-24T05:10:09.559Z,20.70
2022-11-24T05:12:36.394Z,18.37
2022-11-24T05:15:05.111Z,16.17
2022-11-24T05:17:34.457Z,15.50
2022-11-24T05:20:02.174Z,13.97
2022-11-24T05:22:29.573Z,16.03
2022-11-24T05:24:56.219Z,19.20
2022-11-24T05:27:23.436Z,19.27
2022-11-24T05:29:50.154Z,18.57
2022-11-24T05:32:16.790Z,16.43
2022-11-24T05:34:43.417Z,15.50
2022-11-24T05:37:10.240Z,12.30
2022-11-24T05:39:37.287Z,16.33
2022-11-24T05:42:25.874Z,15.17
2022-11-24T05:44:53.527Z,15.90
2022-11-24T05:47:20.767Z,15.07
2022-11-24T05:49:47.462Z,17.87
2022-11-24T05:52:14.854Z,16.93
2022-11-24T05:54:41.626Z,20.40
2022-11-24T05:57:08.202Z,16.07
2022-11-24T05:59:34.938Z,11.77
2022-11-24T06:02:01.913Z,16.97
2022-11-24T06:04:28.717Z,12.80
2022-11-24T06:06:55.307Z,13.00
2022-11-24T06:09:21.908Z,13.73
2022-11-24T06:11:49.255Z,15.07
2022-11-24T06:14:15.859Z,13.73
2022-11-24T06:16:42.570Z,12.67
2022-11-24T06:19:10.377Z,13.30
2022-11-24T06:21:37.041Z,12.37
2022-11-24T06:24:04.483Z,14.90
2022-11-24T06:26:31.099Z,13.70
2022-11-24T06:28:57.699Z,13.53
2022-11-24T06:31:24.314Z,10.10
2022-11-24T06:33:50.948Z,9.67
2022-11-24T06:36:17.582Z,16.77
2022-11-24T06:38:44.205Z,13.43
2022-11-24T06:41:16.061Z,12.70
2022-11-24T06:43:43.177Z,12.10
2022-11-24T06:46:10.728Z,9.83
2022-11-24T06:48:37.406Z,9.00
2022-11-24T06:51:06.729Z,11.50
2022-11-24T06:53:38.497Z,8.80
2022-11-24T06:56:13.814Z,12.97
2022-11-24T06:58:48.012Z,6.87
2022-11-24T07:01:22.768Z,9.40
2022-11-24T07:03:50.297Z,8.70
2022-11-24T07:06:18.092Z,10.53
2022-11-24T07:08:45.388Z,10.70
2022-11-24T07:11:23.012Z,12.80
2022-11-24T07:13:55.090Z,10.50
2022-11-24T07:16:25.736Z,8.57
2022-11-24T07:18:53.860Z,8.17
2022-11-24T07:21:22.371Z,9.33
2022-11-24T07:23:54.366Z,8.50
2022-11-24T07:26:22.471Z,6.90
2022-11-24T07:28:49.855Z,6.30
2022-11-24T07:31:19.592Z,7.43
2022-11-24T07:33:49.947Z,5.20
2022-11-24T07:36:16.997Z,10.13
2022-11-24T07:38:43.578Z,9.77
2022-11-24T07:41:12.620Z,5.77
2022-11-24T07:43:39.698Z,8.20
2022-11-24T07:46:08.184Z,7.17
2022-11-24T07:48:35.017Z,7.83
2022-11-24T07:51:02.863Z,5.67
2022-11-24T07:53:29.464Z,5.67
2022-11-24T07:56:00.248Z,7.80
2022-11-24T07:58:32.613Z,7.57
2022-11-24T08:01:00.313Z,6.70
2022-11-24T08:03:27.247Z,5.67
2022-11-24T08:08:46.143Z,9.43
2022-11-24T08:11:15.708Z,8.93
2022-11-24T08:13:42.881Z,9.50
2022-11-24T08:16:16.781Z,6.90
2022-11-24T08:18:44.924Z,7.90
2022-11-24T08:21:14.658Z,7.00
2022-11-24T08:23:41.815Z,6.47
2022-11-24T08:26:13.698Z,10.33
2022-11-24T08:28:40.360Z,6.20
2022-11-24T08:31:16.406Z,9.20
2022-11-24T08:33:43.461Z,11.13
2022-11-24T08:36:13.517Z,10.80
2022-11-24T08:38:40.445Z,6.30
2022-11-24T08:41:10.017Z,8.23
2022-11-24T08:43:37.006Z,9.67
2022-11-24T08:46:09.449Z,9.53
2022-11-24T08:48:36.889Z,9.47
2022-11-24T08:51:09.042Z,8.47
2022-11-24T08:53:35.647Z,7.37
2022-11-24T08:56:03.886Z,11.07
2022-11-24T08:58:31.286Z,7.47
2022-11-24T09:01:22.521Z,6.63
2022-11-24T09:03:51.202Z,9.07
2022-11-24T09:06:22.869Z,6.37
2022-11-24T09:08:50.033Z,8.83
2022-11-24T09:11:17.247Z,7.37
2022-11-24T09:13:44.359Z,9.10
2022-11-24T09:16:16.865Z,8.63
2022-11-24T09:18:43.955Z,12.27
2022-11-24T09:21:15.187Z,6.97
2022-11-24T09:23:43.040Z,7.17
2022-11-24T09:26:13.923Z,10.17
2022-11-24T09:28:41.587Z,8.33
2022-11-24T09:31:10.578Z,8.73
2022-11-24T09:33:38.784Z,5.27
2022-11-24T09:36:06.306Z,8.03
2022-11-24T09:38:33.244Z,10.70
2022-11-24T09:41:20.438Z,8.37
2022-11-24T09:44:11.440Z,6.90
2022-11-24T09:47:06.696Z,8.90
2022-11-24T09:49:49.886Z,7.23
2022-11-24T09:52:23.111Z,6.97
2022-11-24T09:55:03.396Z,7.77
2022-11-24T09:57:37.508Z,8.73
2022-11-24T10:00:12.346Z,6.73
2022-11-24T10:02:39.162Z,8.27
2022-11-24T10:05:06.942Z,7.97
2022-11-24T10:07:42.510Z,8.43
2022-11-24T10:10:24.267Z,9.63
2022-11-24T10:13:22.375Z,8.43
2022-11-24T10:16:04.561Z,8.33
2022-11-24T10:18:40.274Z,8.07
2022-11-24T10:21:06.878Z,6.73
2022-11-24T10:24:04.382Z,6.33
2022-11-24T10:26:39.407Z,7.23
2022-11-24T10:29:23.434Z,7.80
2022-11-24T10:31:54.590Z,6.20
2022-11-24T10:34:37.273Z,5.57
2022-11-24T10:37:38.727Z,11.10
2022-11-24T10:40:33.380Z,7.57
2022-11-24T10:43:06.458Z,7.77
2022-11-24T10:45:33.321Z,8.83
2022-11-24T10:47:59.876Z,7.80
2022-11-24T10:50:36.282Z,12.50
2022-11-24T10:53:09.097Z,10.17
2022-11-24T10:55:54.515Z,8.03
2022-11-24T10:58:24.024Z,5.97
2022-11-24T11:00:50.714Z,7.13
2022-11-24T11:03:21.840Z,7.97
2022-11-24T11:05:52.518Z,7.27
2022-11-24T11:08:30.290Z,6.40
2022-11-24T11:11:29.577Z,10.03
2022-11-24T11:14:04.267Z,7.33
2022-11-24T11:16:37.269Z,5.20
2022-11-24T11:19:26.090Z,6.07
2022-11-24T11:22:03.628Z,8.48
2022-11-24T11:24:30.718Z,10.30
2022-11-24T11:27:05.415Z,5.77
2022-11-24T11:35:05.491Z,9.43
2022-11-24T11:37:33.087Z,7.63
2022-11-24T11:40:00.498Z,5.97
2022-11-24T11:45:35.825Z,6.50
2022-11-24T11:48:02.958Z,4.40
2022-11-24T11:51:21.060Z,6.43
2022-11-24T11:53:46.545Z,8.38
2022-11-24T11:56:30.253Z,6.45
2022-11-24T11:59:07.052Z,9.20
2022-11-24T12:01:51.477Z,8.83
2022-11-24T12:04:49.071Z,6.27
2022-11-24T12:07:54.592Z,7.32
2022-11-24T12:10:55.364Z,8.07
2022-11-24T12:13:43.499Z,8.93
2022-11-24T12:16:21.872Z,4.53
2022-11-24T12:18:58.421Z,6.65
2022-11-24T12:21:37.399Z,4.53
2022-11-24T12:24:09.711Z,4.75
2022-11-24T12:26:46.381Z,10.27
2022-11-24T12:29:30.005Z,4.80
2022-11-24T12:32:23.123Z,6.33
2022-11-24T12:35:18.986Z,7.83
2022-11-24T12:38:08.391Z,7.27
2022-11-24T12:40:47.428Z,6.67
2022-11-24T12:43:27.435Z,7.13
2022-11-24T12:46:17.756Z,6.40
2022-11-24T12:48:53.563Z,7.23
2022-11-24T12:51:25.827Z,6.10
2022-11-24T12:53:54.560Z,7.27
2022-11-24T12:56:30.868Z,6.93
2022-11-24T12:59:17.718Z,9.75
2022-11-24T13:01:53.988Z,8.63
2022-11-24T13:04:59.146Z,9.13
2022-11-24T13:07:47.761Z,7.83
2022-11-24T13:10:46.514Z,6.77
2022-11-24T13:13:12.384Z,10.65
2022-11-24T13:16:20.617Z,6.20
2022-11-24T13:18:57.304Z,7.88
2022-11-24T13:21:30.983Z,6.00
2022-11-24T13:23:59.687Z,6.03
2022-11-24T13:26:48.727Z,7.20
2022-11-24T13:29:39.000Z,5.95
2022-11-24T13:32:05.554Z,8.40
2022-11-24T13:34:42.671Z,6.55
2022-11-24T13:37:31.328Z,8.90
2022-11-24T13:40:04.938Z,6.15
2022-11-24T13:42:43.457Z,7.17
2022-11-24T13:45:40.305Z,8.07
2022-11-24T13:48:19.442Z,5.82
2022-11-24T13:50:58.306Z,7.20
2022-11-24T13:53:42.437Z,6.43
2022-11-24T13:56:22.672Z,9.33
2022-11-24T13:58:58.624Z,13.03
2022-11-24T14:01:29.024Z,8.55
2022-11-24T14:06:48.043Z,9.10
2022-11-24T14:09:26.411Z,12.03
2022-11-24T14:12:02.059Z,11.13
2022-11-24T14:14:28.751Z,10.20
2022-11-24T14:17:16.081Z,9.30
2022-11-24T14:19:46.270Z,10.13
2022-11-24T14:22:27.699Z,15.67
2022-11-24T14:24:59.430Z,10.83
2022-11-24T14:27:37.399Z,14.53
2022-11-24T14:30:18.205Z,19.10
2022-11-24T14:32:58.401Z,15.03
2022-11-24T14:35:36.160Z,41.13
2022-11-24T14:38:05.484Z,21.23
2022-11-24T14:40:49.115Z,16.87
2022-11-24T14:43:29.369Z,10.40
2022-11-24T14:45:59.304Z,12.33
2022-11-24T14:48:33.452Z,18.03
2022-11-24T14:51:08.929Z,11.53
2022-11-24T14:53:35.912Z,11.83
2022-11-24T14:56:21.784Z,12.20
2022-11-24T14:58:48.671Z,8.43
2022-11-24T15:01:30.121Z,8.37
2022-11-24T15:04:39.044Z,8.50
2022-11-24T15:07:06.763Z,7.90
2022-11-24T15:09:51.542Z,10.83
2022-11-24T15:12:22.724Z,8.87
2022-11-24T15:14:52.022Z,23.03
2022-11-24T15:17:23.002Z,23.67
2022-11-24T15:19:55.543Z,16.33
2022-11-24T15:22:40.308Z,12.73
2022-11-24T15:25:33.452Z,11.00
2022-11-24T15:28:00.863Z,10.57
2022-11-24T15:30:34.692Z,10.63
2022-11-24T15:33:01.746Z,9.23
2022-11-24T15:35:32.611Z,11.80
2022-11-24T15:37:59.198Z,15.17
2022-11-24T15:40:25.860Z,18.57
2022-11-24T15:42:56.278Z,17.83
2022-11-24T15:45:26.322Z,15.87
2022-11-24T15:47:53.260Z,9.20
2022-11-24T15:50:20.528Z,14.27
2022-11-24T15:52:48.326Z,12.17
2022-11-24T15:55:20.404Z,11.57
2022-11-24T15:57:47.561Z,14.37
2022-11-24T16:00:23.884Z,12.67
2022-11-24T16:02:50.641Z,15.93
2022-11-24T16:05:18.219Z,23.17
2022-11-24T16:07:44.879Z,13.43
2022-11-24T16:10:30.036Z,16.83
2022-11-24T16:12:56.607Z,19.93
2022-11-24T16:15:23.302Z,14.13
2022-11-24T16:17:50.181Z,16.90
2022-11-24T16:20:17.252Z,9.80
2022-11-24T16:22:43.856Z,11.27
2022-11-24T16:25:11.550Z,10.07
2022-11-24T16:27:38.545Z,12.77
2022-11-24T16:30:06.306Z,7.67
2022-11-24T16:32:33.330Z,10.67
2022-11-24T16:34:59.934Z,8.13
2022-11-24T16:37:26.498Z,11.47
2022-11-24T16:39:53.076Z,8.73
2022-11-24T16:42:19.731Z,9.97
2022-11-24T16:44:46.429Z,10.00
2022-11-24T16:47:13.093Z,12.13
2022-11-24T16:49:39.788Z,11.67
2022-11-24T16:52:06.426Z,14.87
2022-11-24T16:54:33.351Z,11.47
2022-11-24T16:57:00.212Z,11.30
2022-11-24T16:59:26.789Z,14.30
2022-11-24T17:01:53.516Z,12.37
2022-11-24T17:04:20.184Z,11.50
2022-11-24T17:06:46.795Z,15.17
2022-11-24T17:09:13.442Z,12.33
2022-11-24T17:11:40.302Z,13.27
2022-11-24T17:14:06.981Z,10.33
2022-11-24T17:16:33.617Z,9.43
2022-11-24T17:19:00.357Z,9.10
2022-11-24T17:21:27.891Z,11.23
2022-11-24T17:24:05.411Z,9.13
2022-11-24T17:26:33.233Z,16.67
2022-11-24T17:28:59.817Z,12.90
2022-11-24T17:31:29.161Z,10.90
2022-11-24T17:33:57.687Z,10.10
2022-11-24T17:36:24.654Z,12.93
2022-11-24T17:38:52.296Z,14.87
2022-11-24T17:41:21.122Z,7.40
2022-11-24T17:43:50.652Z,11.00
2022-11-24T17:46:18.529Z,8.73
2022-11-24T17:48:47.480Z,8.43
2022-11-24T17:51:17.320Z,14.07
2022-11-24T17:53:48.461Z,11.37
2022-11-24T17:56:20.916Z,8.53
2022-11-24T17:58:48.460Z,7.93
2022-11-24T18:01:15.750Z,9.33
2022-11-24T18:03:43.272Z,14.60
2022-11-24T18:06:13.017Z,8.30
2022-11-24T18:08:46.963Z,10.90
2022-11-24T18:11:27.346Z,11.30
2022-11-24T18:14:00.934Z,10.13
2022-11-24T18:16:31.353Z,11.27
2022-11-24T18:19:08.754Z,11.50
2022-11-24T18:21:46.153Z,14.53
2022-11-24T18:24:13.811Z,13.60
2022-11-24T18:26:41.825Z,28.20
2022-11-24T18:29:09.845Z,18.93
2022-11-24T18:31:37.335Z,15.93
2022-11-24T18:34:05.837Z,13.37
2022-11-24T18:36:33.175Z,13.03
2022-11-24T18:39:08.150Z,13.10
2022-11-24T18:41:35.719Z,10.63
2022-11-24T18:44:03.116Z,11.83
2022-11-24T18:46:31.363Z,12.47
2022-11-24T18:48:57.965Z,11.17
2022-11-24T18:51:24.744Z,15.27
2022-11-24T18:53:54.598Z,12.90
2022-11-24T18:56:22.468Z,16.43
2022-11-24T18:58:53.447Z,14.27
2022-11-24T19:01:26.438Z,12.90
2022-11-24T19:03:58.241Z,12.60
2022-11-24T19:06:34.529Z,15.23
2022-11-24T19:09:06.833Z,11.13
2022-11-24T19:11:37.224Z,12.77
2022-11-24T19:14:06.327Z,12.53
2022-11-24T19:16:34.472Z,14.50
2022-11-24T19:19:03.976Z,12.97
2022-11-24T19:21:33.596Z,10.37
2022-11-24T19:24:05.399Z,13.87
2022-11-24T19:26:36.498Z,13.40
2022-11-24T19:29:04.822Z,14.03
2022-11-24T19:31:32.172Z,13.33
2022-11-24T19:33:59.967Z,13.33
2022-11-24T19:36:26.995Z,9.90
2022-11-24T19:38:58.748Z,9.70
2022-11-24T19:41:30.681Z,15.13
2022-11-24T19:43:58.943Z,9.30
2022-11-24T19:46:29.852Z,12.87
2022-11-24T19:49:00.457Z,9.40
2022-11-24T19:51:35.576Z,12.23
2022-11-24T19:54:03.606Z,13.27
2022-11-24T19:56:34.103Z,10.77
2022-11-24T19:59:01.322Z,9.10
2022-11-24T20:01:31.457Z,9.90
2022-11-24T20:04:04.444Z,8.77
2022-11-24T20:06:33.700Z,12.57
2022-11-24T20:09:01.027Z,16.03
2022-11-24T20:11:28.620Z,12.43
2022-11-24T20:13:56.442Z,16.93
2022-11-24T20:16:26.695Z,15.23
2022-11-24T20:18:55.335Z,14.27
2022-11-24T20:21:25.005Z,16.00
2022-11-24T20:23:56.992Z,16.20
2022-11-24T20:26:25.240Z,13.00
2022-11-24T20:28:54.110Z,15.33
2022-11-24T20:31:35.032Z,11.57
2022-11-24T20:34:03.158Z,14.43
2022-11-24T20:36:31.795Z,12.50
2022-11-24T20:39:05.868Z,12.90
2022-11-24T20:41:34.089Z,11.00
2022-11-24T20:44:10.622Z,14.00
2022-11-24T20:46:38.881Z,11.50
2022-11-24T20:49:07.475Z,9.80
2022-11-24T20:51:39.713Z,8.13
2022-11-24T20:54:08.563Z,13.87
2022-11-24T20:56:39.737Z,12.60
2022-11-24T20:59:07.255Z,8.00
2022-11-24T21:01:38.336Z,12.87
2022-11-24T21:04:07.903Z,11.40
2022-11-24T21:06:34.960Z,12.23
2022-11-24T21:09:04.123Z,9.30
2022-11-24T21:11:31.272Z,9.97
2022-11-24T21:13:57.948Z,10.83
2022-11-24T21:16:27.667Z,14.37
2022-11-24T21:18:59.958Z,9.37
2022-11-24T21:21:33.904Z,8.03
2022-11-24T21:24:13.998Z,7.53
2022-11-24T21:26:41.938Z,10.77
2022-11-24T21:29:11.376Z,10.97
2022-11-24T21:31:39.032Z,7.97
2022-11-24T21:34:07.377Z,9.73
2022-11-24T21:36:35.211Z,12.30
2022-11-24T21:39:03.369Z,15.33
2022-11-24T21:41:32.625Z,13.57
2022-11-24T21:43:59.232Z,10.20
2022-11-24T21:46:25.797Z,14.23
2022-11-24T21:48:52.603Z,9.00
2022-11-24T21:51:20.862Z,10.57
2022-11-24T21:53:48.257Z,10.07
2022-11-24T21:56:17.224Z,9.60
2022-11-24T21:58:48.698Z,14.43
2022-11-24T22:01:17.753Z,11.83
2022-11-24T22:03:44.643Z,10.73
2022-11-24T22:06:11.895Z,7.57
2022-11-24T22:08:38.757Z,9.90
2022-11-24T22:11:08.495Z,13.70
2022-11-24T22:13:35.159Z,10.50
2022-11-24T22:16:06.267Z,12.20
2022-11-24T22:18:34.781Z,10.13
2022-11-24T22:21:05.088Z,15.33
2022-11-24T22:23:33.249Z,10.87
2022-11-24T22:26:14.397Z,16.13
2022-11-24T22:28:42.099Z,11.57
2022-11-24T22:31:13.103Z,15.47
2022-11-24T22:33:39.839Z,12.27
2022-11-24T22:36:07.007Z,13.30
2022-11-24T22:38:34.437Z,13.17
2022-11-24T22:41:05.715Z,12.73
2022-11-24T22:43:34.175Z,13.13
2022-11-24T22:46:28.104Z,12.20
2022-11-24T22:48:55.444Z,14.07
2022-11-24T22:51:25.355Z,13.63
2022-11-24T22:53:56.067Z,11.27
2022-11-24T22:56:23.664Z,12.60
2022-11-24T22:58:50.839Z,12.40
2022-11-24T23:01:23.054Z,10.10
2022-11-24T23:03:51.021Z,12.80
2022-11-24T23:06:22.869Z,13.67
2022-11-24T23:08:50.408Z,13.13
2022-11-24T23:11:20.070Z,11.97
2022-11-24T23:13:46.753Z,12.43
2022-11-24T23:16:18.186Z,11.37
2022-11-24T23:18:49.837Z,12.50
2022-11-24T23:21:21.707Z,12.47
2022-11-24T23:23:49.632Z,14.77
2022-11-24T23:26:22.326Z,9.80
2022-11-24T23:28:49.273Z,10.57
2022-11-24T23:31:18.243Z,14.70
2022-11-24T23:33:45.321Z,11.40
2022-11-24T23:36:15.385Z,14.63
2022-11-24T23:38:43.066Z,11.13
2022-11-24T23:41:12.080Z,14.00
2022-11-24T23:43:40.222Z,10.57
2022-11-24T23:46:09.126Z,13.53
2022-11-24T23:48:36.603Z,8.63
2022-11-24T23:51:13.131Z,12.97
2022-11-24T23:53:40.624Z,11.10
2022-11-24T23:56:07.825Z,16.87
2022-11-24T23:58:35.004Z,10.73
